createdAt,value
2022-09-15T00:00:18.391Z,91.53
2022-09-15T00:02:50.598Z,91.51
2022-09-15T00:05:21.800Z,91.54
2022-09-15T00:07:55.860Z,91.57
2022-09-15T00:10:28.930Z,91.69
2022-09-15T00:12:59.239Z,91.71
2022-09-15T00:15:30.949Z,91.74
2022-09-15T00:18:04.711Z,91.73
2022-09-15T00:20:36.420Z,91.88
2022-09-15T00:23:08.842Z,91.97
2022-09-15T00:25:47.052Z,91.95
2022-09-15T00:28:21.166Z,92.10
2022-09-15T00:30:53.904Z,92.22
2022-09-15T00:33:28.739Z,92.23
2022-09-15T00:36:07.444Z,92.32
2022-09-15T00:38:38.894Z,92.25
2022-09-15T00:41:18.853Z,92.37
2022-09-15T00:43:53.195Z,92.34
2022-09-15T00:46:26.355Z,92.36
2022-09-15T00:49:04.571Z,92.51
2022-09-15T00:51:44.195Z,92.67
2022-09-15T00:54:19.015Z,92.70
2022-09-15T00:56:53.534Z,92.72
2022-09-15T00:59:27.629Z,93.00
2022-09-15T01:02:04.785Z,92.98
2022-09-15T01:04:37.483Z,92.92
2022-09-15T01:07:12.362Z,92.85
2022-09-15T01:09:48.645Z,92.91
2022-09-15T01:12:20.525Z,92.88
2022-09-15T01:14:51.795Z,93.00
2022-09-15T01:17:36.007Z,92.86
2022-09-15T01:20:51.624Z,92.85
2022-09-15T01:23:55.439Z,92.89
2022-09-15T01:26:56.459Z,93.02
2022-09-15T01:29:46.864Z,93.11
2022-09-15T01:32:40.429Z,93.23
2022-09-15T01:35:23.629Z,93.30
2022-09-15T01:38:00.192Z,93.37
2022-09-15T01:40:34.683Z,93.43
2022-09-15T01:43:07.715Z,93.58
2022-09-15T01:45:44.938Z,93.56
2022-09-15T01:48:19.450Z,93.63
2022-09-15T01:50:57.447Z,93.69
2022-09-15T01:53:31.237Z,93.65
2022-09-15T01:56:07.578Z,93.76
2022-09-15T01:58:43.628Z,93.64
2022-09-15T02:01:18.600Z,93.82
2022-09-15T02:03:54.934Z,93.76
2022-09-15T02:06:41.292Z,93.73
2022-09-15T02:09:19.443Z,93.84
2022-09-15T02:11:59.619Z,93.84
2022-09-15T02:14:43.131Z,94.00
2022-09-15T02:17:17.668Z,94.09
2022-09-15T02:19:52.108Z,94.16
2022-09-15T02:22:30.194Z,94.19
2022-09-15T02:25:07.126Z,94.36
2022-09-15T02:27:39.151Z,94.37
2022-09-15T02:30:15.400Z,94.61
2022-09-15T02:32:52.019Z,94.63
2022-09-15T02:35:24.242Z,94.76
2022-09-15T02:37:57.868Z,94.84
2022-09-15T02:40:31.828Z,94.90
